sensor_id;sensor_type;location;lat;lon;timestamp;P1;durP1;ratioP1;P2;durP2;ratioP2
55776;SDS011;54079;44.540;18.784;2023-04-24T00:00:20;2.22;;;1.85;;
55776;SDS011;54079;44.540;18.784;2023-04-24T00:02:46;2.10;;;1.50;;
55776;SDS011;54079;44.540;18.784;2023-04-24T00:05:15;1.67;;;1.42;;
55776;SDS011;54079;44.540;18.784;2023-04-24T00:07:42;2.45;;;1.65;;
55776;SDS011;54079;44.540;18.784;2023-04-24T00:10:09;1.58;;;1.45;;
55776;SDS011;54079;44.540;18.784;2023-04-24T00:12:36;3.78;;;2.28;;
55776;SDS011;54079;44.540;18.784;2023-04-24T00:15:02;2.22;;;1.63;;
55776;SDS011;54079;44.540;18.784;2023-04-24T00:17:29;1.65;;;1.55;;
55776;SDS011;54079;44.540;18.784;2023-04-24T00:19:56;1.92;;;1.42;;
55776;SDS011;54079;44.540;18.784;2023-04-24T00:22:25;2.30;;;2.10;;
55776;SDS011;54079;44.540;18.784;2023-04-24T00:24:52;2.33;;;1.92;;
55776;SDS011;54079;44.540;18.784;2023-04-24T00:27:18;1.60;;;1.23;;
55776;SDS011;54079;44.540;18.784;2023-04-24T00:29:44;1.90;;;1.70;;
55776;SDS011;54079;44.540;18.784;2023-04-24T00:32:10;1.92;;;1.80;;
55776;SDS011;54079;44.540;18.784;2023-04-24T00:34:36;3.13;;;1.60;;
55776;SDS011;54079;44.540;18.784;2023-04-24T00:37:02;1.98;;;1.80;;
55776;SDS011;54079;44.540;18.784;2023-04-24T00:39:28;2.50;;;1.70;;
55776;SDS011;54079;44.540;18.784;2023-04-24T00:41:54;1.45;;;1.33;;
55776;SDS011;54079;44.540;18.784;2023-04-24T00:44:21;2.33;;;1.55;;
55776;SDS011;54079;44.540;18.784;2023-04-24T00:46:47;1.33;;;1.13;;
55776;SDS011;54079;44.540;18.784;2023-04-24T00:49:20;2.30;;;1.63;;
55776;SDS011;54079;44.540;18.784;2023-04-24T00:51:49;2.00;;;1.80;;
55776;SDS011;54079;44.540;18.784;2023-04-24T00:54:16;2.05;;;1.85;;
55776;SDS011;54079;44.540;18.784;2023-04-24T00:56:43;2.10;;;1.90;;
55776;SDS011;54079;44.540;18.784;2023-04-24T00:59:11;2.80;;;1.80;;
55776;SDS011;54079;44.540;18.784;2023-04-24T01:01:38;2.65;;;1.83;;
55776;SDS011;54079;44.540;18.784;2023-04-24T01:04:07;1.73;;;1.55;;
55776;SDS011;54079;44.540;18.784;2023-04-24T01:06:35;1.85;;;1.65;;
55776;SDS011;54079;44.540;18.784;2023-04-24T01:09:04;2.05;;;1.70;;
55776;SDS011;54079;44.540;18.784;2023-04-24T01:11:30;1.88;;;1.77;;
55776;SDS011;54079;44.540;18.784;2023-04-24T01:13:56;1.40;;;1.30;;
55776;SDS011;54079;44.540;18.784;2023-04-24T01:16:23;2.28;;;1.70;;
55776;SDS011;54079;44.540;18.784;2023-04-24T01:18:50;3.03;;;1.65;;
55776;SDS011;54079;44.540;18.784;2023-04-24T01:21:16;2.65;;;1.63;;
55776;SDS011;54079;44.540;18.784;2023-04-24T01:23:43;3.70;;;1.92;;
55776;SDS011;54079;44.540;18.784;2023-04-24T01:26:10;2.20;;;1.98;;
55776;SDS011;54079;44.540;18.784;2023-04-24T01:28:37;2.67;;;2.47;;
55776;SDS011;54079;44.540;18.784;2023-04-24T01:31:03;3.60;;;2.55;;
55776;SDS011;54079;44.540;18.784;2023-04-24T01:33:29;1.92;;;1.73;;
55776;SDS011;54079;44.540;18.784;2023-04-24T01:35:55;2.88;;;2.28;;
55776;SDS011;54079;44.540;18.784;2023-04-24T01:38:22;2.78;;;1.50;;
55776;SDS011;54079;44.540;18.784;2023-04-24T01:40:47;2.33;;;1.75;;
55776;SDS011;54079;44.540;18.784;2023-04-24T01:43:15;2.30;;;1.65;;
55776;SDS011;54079;44.540;18.784;2023-04-24T01:45:41;1.17;;;1.08;;
55776;SDS011;54079;44.540;18.784;2023-04-24T01:48:07;1.60;;;1.50;;
55776;SDS011;54079;44.540;18.784;2023-04-24T01:50:33;1.85;;;1.60;;
55776;SDS011;54079;44.540;18.784;2023-04-24T01:52:59;3.17;;;1.60;;
55776;SDS011;54079;44.540;18.784;2023-04-24T01:55:25;2.35;;;1.60;;
55776;SDS011;54079;44.540;18.784;2023-04-24T01:57:52;1.63;;;1.10;;
55776;SDS011;54079;44.540;18.784;2023-04-24T02:00:20;2.33;;;1.80;;
55776;SDS011;54079;44.540;18.784;2023-04-24T02:02:46;1.73;;;1.17;;
55776;SDS011;54079;44.540;18.784;2023-04-24T02:05:12;2.15;;;1.45;;
55776;SDS011;54079;44.540;18.784;2023-04-24T02:07:38;2.05;;;1.90;;
55776;SDS011;54079;44.540;18.784;2023-04-24T02:10:04;1.77;;;1.48;;
55776;SDS011;54079;44.540;18.784;2023-04-24T02:12:30;2.05;;;1.75;;
55776;SDS011;54079;44.540;18.784;2023-04-24T02:14:56;1.70;;;1.60;;
55776;SDS011;54079;44.540;18.784;2023-04-24T02:17:22;2.58;;;2.10;;
55776;SDS011;54079;44.540;18.784;2023-04-24T02:19:48;2.92;;;2.08;;
55776;SDS011;54079;44.540;18.784;2023-04-24T02:22:14;3.05;;;2.00;;
55776;SDS011;54079;44.540;18.784;2023-04-24T02:24:40;2.65;;;2.33;;
55776;SDS011;54079;44.540;18.784;2023-04-24T02:27:06;2.65;;;2.15;;
55776;SDS011;54079;44.540;18.784;2023-04-24T02:29:32;3.38;;;1.70;;
55776;SDS011;54079;44.540;18.784;2023-04-24T02:31:58;2.42;;;2.15;;
55776;SDS011;54079;44.540;18.784;2023-04-24T02:34:24;1.80;;;1.60;;
55776;SDS011;54079;44.540;18.784;2023-04-24T02:36:51;2.42;;;2.03;;
55776;SDS011;54079;44.540;18.784;2023-04-24T02:39:18;2.60;;;1.75;;
55776;SDS011;54079;44.540;18.784;2023-04-24T02:41:45;2.13;;;1.67;;
55776;SDS011;54079;44.540;18.784;2023-04-24T02:44:11;2.97;;;2.60;;
55776;SDS011;54079;44.540;18.784;2023-04-24T02:46:37;2.60;;;2.05;;
55776;SDS011;54079;44.540;18.784;2023-04-24T02:49:03;2.40;;;1.98;;
55776;SDS011;54079;44.540;18.784;2023-04-24T02:51:29;2.40;;;2.20;;
55776;SDS011;54079;44.540;18.784;2023-04-24T02:53:56;1.75;;;1.20;;
55776;SDS011;54079;44.540;18.784;2023-04-24T02:56:21;1.35;;;1.25;;
55776;SDS011;54079;44.540;18.784;2023-04-24T02:58:47;2.15;;;1.90;;
55776;SDS011;54079;44.540;18.784;2023-04-24T03:01:13;2.25;;;2.00;;
55776;SDS011;54079;44.540;18.784;2023-04-24T03:03:39;2.42;;;2.05;;
55776;SDS011;54079;44.540;18.784;2023-04-24T03:06:05;1.95;;;1.65;;
55776;SDS011;54079;44.540;18.784;2023-04-24T03:08:33;1.50;;;1.40;;
55776;SDS011;54079;44.540;18.784;2023-04-24T03:10:59;3.42;;;1.63;;
55776;SDS011;54079;44.540;18.784;2023-04-24T03:13:25;1.58;;;1.40;;
55776;SDS011;54079;44.540;18.784;2023-04-24T03:15:51;1.77;;;1.60;;
55776;SDS011;54079;44.540;18.784;2023-04-24T03:18:17;3.47;;;1.40;;
55776;SDS011;54079;44.540;18.784;2023-04-24T03:20:45;3.15;;;1.83;;
55776;SDS011;54079;44.540;18.784;2023-04-24T03:23:19;2.08;;;1.80;;
55776;SDS011;54079;44.540;18.784;2023-04-24T03:25:45;1.65;;;1.52;;
55776;SDS011;54079;44.540;18.784;2023-04-24T03:28:10;2.28;;;1.73;;
55776;SDS011;54079;44.540;18.784;2023-04-24T03:30:36;2.33;;;1.70;;
55776;SDS011;54079;44.540;18.784;2023-04-24T03:33:02;3.85;;;1.80;;
55776;SDS011;54079;44.540;18.784;2023-04-24T03:35:28;1.85;;;1.30;;
55776;SDS011;54079;44.540;18.784;2023-04-24T03:37:55;1.20;;;1.00;;
55776;SDS011;54079;44.540;18.784;2023-04-24T03:40:21;3.20;;;1.58;;
55776;SDS011;54079;44.540;18.784;2023-04-24T03:42:47;1.70;;;1.60;;
55776;SDS011;54079;44.540;18.784;2023-04-24T03:45:13;1.50;;;1.40;;
55776;SDS011;54079;44.540;18.784;2023-04-24T03:47:38;1.58;;;1.42;;
55776;SDS011;54079;44.540;18.784;2023-04-24T03:50:04;1.33;;;1.13;;
55776;SDS011;54079;44.540;18.784;2023-04-24T03:52:31;1.40;;;1.30;;
55776;SDS011;54079;44.540;18.784;2023-04-24T03:54:56;1.92;;;1.60;;
55776;SDS011;54079;44.540;18.784;2023-04-24T03:57:22;1.55;;;1.05;;
55776;SDS011;54079;44.540;18.784;2023-04-24T03:59:48;2.13;;;1.40;;
55776;SDS011;54079;44.540;18.784;2023-04-24T04:02:14;1.67;;;1.55;;
55776;SDS011;54079;44.540;18.784;2023-04-24T04:04:40;2.20;;;1.50;;
55776;SDS011;54079;44.540;18.784;2023-04-24T04:07:06;3.38;;;1.77;;
55776;SDS011;54079;44.540;18.784;2023-04-24T04:09:33;1.88;;;1.58;;
55776;SDS011;54079;44.540;18.784;2023-04-24T04:11:59;2.13;;;1.63;;
55776;SDS011;54079;44.540;18.784;2023-04-24T04:14:26;2.65;;;1.95;;
55776;SDS011;54079;44.540;18.784;2023-04-24T04:16:52;1.95;;;1.50;;
55776;SDS011;54079;44.540;18.784;2023-04-24T04:19:18;3.03;;;1.67;;
55776;SDS011;54079;44.540;18.784;2023-04-24T04:21:44;2.17;;;1.98;;
55776;SDS011;54079;44.540;18.784;2023-04-24T04:24:11;2.88;;;1.98;;
55776;SDS011;54079;44.540;18.784;2023-04-24T04:26:37;2.08;;;1.88;;
55776;SDS011;54079;44.540;18.784;2023-04-24T04:29:04;1.60;;;1.50;;
55776;SDS011;54079;44.540;18.784;2023-04-24T04:31:31;1.88;;;1.33;;
55776;SDS011;54079;44.540;18.784;2023-04-24T04:33:57;1.95;;;1.48;;
55776;SDS011;54079;44.540;18.784;2023-04-24T04:36:24;1.73;;;1.63;;
55776;SDS011;54079;44.540;18.784;2023-04-24T04:38:51;2.10;;;1.73;;
55776;SDS011;54079;44.540;18.784;2023-04-24T04:41:16;1.75;;;1.50;;
55776;SDS011;54079;44.540;18.784;2023-04-24T04:43:43;1.30;;;1.20;;
55776;SDS011;54079;44.540;18.784;2023-04-24T04:46:09;3.05;;;1.90;;
55776;SDS011;54079;44.540;18.784;2023-04-24T04:48:36;1.60;;;1.40;;
55776;SDS011;54079;44.540;18.784;2023-04-24T04:51:03;1.90;;;1.73;;
55776;SDS011;54079;44.540;18.784;2023-04-24T04:53:28;1.58;;;1.45;;
55776;SDS011;54079;44.540;18.784;2023-04-24T04:55:54;1.55;;;1.33;;
55776;SDS011;54079;44.540;18.784;2023-04-24T04:58:20;1.17;;;1.00;;
55776;SDS011;54079;44.540;18.784;2023-04-24T05:00:46;1.92;;;1.70;;
55776;SDS011;54079;44.540;18.784;2023-04-24T05:03:13;3.55;;;1.83;;
55776;SDS011;54079;44.540;18.784;2023-04-24T05:05:39;1.33;;;1.20;;
55776;SDS011;54079;44.540;18.784;2023-04-24T05:08:06;2.78;;;1.80;;
55776;SDS011;54079;44.540;18.784;2023-04-24T05:10:33;2.95;;;1.52;;
55776;SDS011;54079;44.540;18.784;2023-04-24T05:12:59;2.40;;;1.63;;
55776;SDS011;54079;44.540;18.784;2023-04-24T05:15:26;3.08;;;2.13;;
55776;SDS011;54079;44.540;18.784;2023-04-24T05:17:52;1.20;;;1.10;;
55776;SDS011;54079;44.540;18.784;2023-04-24T05:20:17;1.88;;;1.50;;
55776;SDS011;54079;44.540;18.784;2023-04-24T05:22:43;1.88;;;1.33;;
55776;SDS011;54079;44.540;18.784;2023-04-24T05:25:09;2.47;;;2.28;;
55776;SDS011;54079;44.540;18.784;2023-04-24T05:27:37;2.78;;;2.20;;
55776;SDS011;54079;44.540;18.784;2023-04-24T05:30:04;2.97;;;1.98;;
55776;SDS011;54079;44.540;18.784;2023-04-24T05:32:31;2.83;;;1.30;;
55776;SDS011;54079;44.540;18.784;2023-04-24T05:34:57;1.80;;;1.67;;
55776;SDS011;54079;44.540;18.784;2023-04-24T05:37:23;3.72;;;1.70;;
55776;SDS011;54079;44.540;18.784;2023-04-24T05:39:49;2.67;;;2.47;;
55776;SDS011;54079;44.540;18.784;2023-04-24T05:42:14;2.15;;;1.83;;
55776;SDS011;54079;44.540;18.784;2023-04-24T05:44:40;2.90;;;1.30;;
55776;SDS011;54079;44.540;18.784;2023-04-24T05:47:06;1.50;;;1.33;;
55776;SDS011;54079;44.540;18.784;2023-04-24T05:49:32;1.52;;;1.38;;
55776;SDS011;54079;44.540;18.784;2023-04-24T05:51:58;1.63;;;1.52;;
55776;SDS011;54079;44.540;18.784;2023-04-24T05:54:24;2.92;;;1.52;;
55776;SDS011;54079;44.540;18.784;2023-04-24T05:56:50;2.22;;;1.77;;
55776;SDS011;54079;44.540;18.784;2023-04-24T05:59:16;1.70;;;1.35;;
55776;SDS011;54079;44.540;18.784;2023-04-24T06:01:42;2.30;;;2.00;;
55776;SDS011;54079;44.540;18.784;2023-04-24T06:04:08;1.77;;;1.63;;
55776;SDS011;54079;44.540;18.784;2023-04-24T06:06:34;2.75;;;1.50;;
55776;SDS011;54079;44.540;18.784;2023-04-24T06:09:01;1.95;;;1.77;;
55776;SDS011;54079;44.540;18.784;2023-04-24T06:11:27;2.22;;;1.90;;
55776;SDS011;54079;44.540;18.784;2023-04-24T06:13:53;1.90;;;1.70;;
55776;SDS011;54079;44.540;18.784;2023-04-24T06:16:19;2.65;;;1.55;;
55776;SDS011;54079;44.540;18.784;2023-04-24T06:18:45;2.42;;;1.60;;
55776;SDS011;54079;44.540;18.784;2023-04-24T06:21:12;2.20;;;1.73;;
55776;SDS011;54079;44.540;18.784;2023-04-24T06:23:38;2.15;;;1.95;;
55776;SDS011;54079;44.540;18.784;2023-04-24T06:26:04;2.20;;;2.00;;
55776;SDS011;54079;44.540;18.784;2023-04-24T06:28:30;1.77;;;1.63;;
55776;SDS011;54079;44.540;18.784;2023-04-24T06:30:56;2.05;;;1.85;;
55776;SDS011;54079;44.540;18.784;2023-04-24T06:33:21;2.15;;;1.42;;
55776;SDS011;54079;44.540;18.784;2023-04-24T06:35:47;1.92;;;1.77;;
55776;SDS011;54079;44.540;18.784;2023-04-24T06:38:13;2.03;;;1.58;;
55776;SDS011;54079;44.540;18.784;2023-04-24T06:40:40;1.77;;;1.55;;
55776;SDS011;54079;44.540;18.784;2023-04-24T06:43:06;2.75;;;2.10;;
55776;SDS011;54079;44.540;18.784;2023-04-24T06:45:32;1.50;;;1.40;;
55776;SDS011;54079;44.540;18.784;2023-04-24T06:47:58;3.00;;;1.65;;
55776;SDS011;54079;44.540;18.784;2023-04-24T06:50:24;1.65;;;1.55;;
55776;SDS011;54079;44.540;18.784;2023-04-24T06:52:50;1.98;;;1.38;;
55776;SDS011;54079;44.540;18.784;2023-04-24T06:55:16;2.03;;;1.92;;
55776;SDS011;54079;44.540;18.784;2023-04-24T06:57:42;2.65;;;1.30;;
55776;SDS011;54079;44.540;18.784;2023-04-24T07:00:09;2.13;;;1.70;;
55776;SDS011;54079;44.540;18.784;2023-04-24T07:02:36;2.10;;;1.90;;
55776;SDS011;54079;44.540;18.784;2023-04-24T07:05:03;2.35;;;1.70;;
55776;SDS011;54079;44.540;18.784;2023-04-24T07:07:29;2.83;;;1.60;;
55776;SDS011;54079;44.540;18.784;2023-04-24T07:09:56;6.25;;;2.13;;
55776;SDS011;54079;44.540;18.784;2023-04-24T07:12:22;3.58;;;1.98;;
55776;SDS011;54079;44.540;18.784;2023-04-24T07:14:50;2.78;;;2.03;;
55776;SDS011;54079;44.540;18.784;2023-04-24T07:17:15;2.88;;;2.10;;
55776;SDS011;54079;44.540;18.784;2023-04-24T07:19:41;1.85;;;1.60;;
55776;SDS011;54079;44.540;18.784;2023-04-24T07:22:07;1.90;;;1.73;;
55776;SDS011;54079;44.540;18.784;2023-04-24T07:24:33;2.75;;;1.70;;
55776;SDS011;54079;44.540;18.784;2023-04-24T07:26:59;2.15;;;1.85;;
55776;SDS011;54079;44.540;18.784;2023-04-24T07:29:28;3.75;;;1.70;;
55776;SDS011;54079;44.540;18.784;2023-04-24T07:31:55;1.65;;;1.55;;
55776;SDS011;54079;44.540;18.784;2023-04-24T07:34:21;2.10;;;1.90;;
55776;SDS011;54079;44.540;18.784;2023-04-24T07:36:47;2.72;;;1.90;;
55776;SDS011;54079;44.540;18.784;2023-04-24T07:39:13;2.25;;;2.05;;
55776;SDS011;54079;44.540;18.784;2023-04-24T07:41:39;3.08;;;2.78;;
55776;SDS011;54079;44.540;18.784;2023-04-24T07:44:05;5.95;;;3.90;;
55776;SDS011;54079;44.540;18.784;2023-04-24T07:46:31;3.72;;;3.20;;
55776;SDS011;54079;44.540;18.784;2023-04-24T07:48:57;2.80;;;2.08;;
55776;SDS011;54079;44.540;18.784;2023-04-24T07:51:24;2.67;;;1.75;;
55776;SDS011;54079;44.540;18.784;2023-04-24T07:53:52;4.35;;;2.95;;
55776;SDS011;54079;44.540;18.784;2023-04-24T07:56:20;3.08;;;2.40;;
55776;SDS011;54079;44.540;18.784;2023-04-24T07:58:46;1.88;;;1.58;;
55776;SDS011;54079;44.540;18.784;2023-04-24T08:01:12;2.38;;;1.70;;
55776;SDS011;54079;44.540;18.784;2023-04-24T08:03:38;2.60;;;2.40;;
55776;SDS011;54079;44.540;18.784;2023-04-24T08:06:04;1.77;;;1.55;;
55776;SDS011;54079;44.540;18.784;2023-04-24T08:08:30;2.15;;;1.95;;
55776;SDS011;54079;44.540;18.784;2023-04-24T08:10:56;1.88;;;1.70;;
55776;SDS011;54079;44.540;18.784;2023-04-24T08:13:22;2.60;;;2.20;;
55776;SDS011;54079;44.540;18.784;2023-04-24T08:15:48;3.85;;;2.60;;
55776;SDS011;54079;44.540;18.784;2023-04-24T08:18:14;2.72;;;2.47;;
55776;SDS011;54079;44.540;18.784;2023-04-24T08:20:41;2.53;;;2.33;;
55776;SDS011;54079;44.540;18.784;2023-04-24T08:23:07;1.92;;;1.75;;
55776;SDS011;54079;44.540;18.784;2023-04-24T08:25:33;2.03;;;1.83;;
55776;SDS011;54079;44.540;18.784;2023-04-24T08:28:01;2.90;;;2.40;;
55776;SDS011;54079;44.540;18.784;2023-04-24T08:30:28;3.13;;;2.42;;
55776;SDS011;54079;44.540;18.784;2023-04-24T08:32:55;5.28;;;4.78;;
55776;SDS011;54079;44.540;18.784;2023-04-24T08:35:21;6.60;;;4.13;;
55776;SDS011;54079;44.540;18.784;2023-04-24T08:37:48;3.45;;;2.88;;
55776;SDS011;54079;44.540;18.784;2023-04-24T08:40:14;17.27;;;4.90;;
55776;SDS011;54079;44.540;18.784;2023-04-24T08:42:41;8.75;;;4.53;;
55776;SDS011;54079;44.540;18.784;2023-04-24T08:45:09;6.28;;;4.32;;
55776;SDS011;54079;44.540;18.784;2023-04-24T08:47:37;7.03;;;5.60;;
55776;SDS011;54079;44.540;18.784;2023-04-24T08:50:04;5.65;;;5.13;;
55776;SDS011;54079;44.540;18.784;2023-04-24T08:52:32;4.65;;;2.47;;
55776;SDS011;54079;44.540;18.784;2023-04-24T08:55:02;4.93;;;4.18;;
55776;SDS011;54079;44.540;18.784;2023-04-24T08:57:28;4.97;;;3.90;;
55776;SDS011;54079;44.540;18.784;2023-04-24T08:59:56;2.53;;;1.95;;
55776;SDS011;54079;44.540;18.784;2023-04-24T09:02:23;3.60;;;3.13;;
55776;SDS011;54079;44.540;18.784;2023-04-24T09:04:52;3.00;;;2.00;;
55776;SDS011;54079;44.540;18.784;2023-04-24T09:07:26;2.10;;;1.58;;
55776;SDS011;54079;44.540;18.784;2023-04-24T09:09:55;2.42;;;1.85;;
55776;SDS011;54079;44.540;18.784;2023-04-24T09:12:21;4.60;;;3.55;;
55776;SDS011;54079;44.540;18.784;2023-04-24T09:14:47;2.63;;;2.05;;
55776;SDS011;54079;44.540;18.784;2023-04-24T09:17:15;4.65;;;2.47;;
55776;SDS011;54079;44.540;18.784;2023-04-24T09:19:41;2.25;;;1.92;;
55776;SDS011;54079;44.540;18.784;2023-04-24T09:22:07;2.20;;;1.70;;
55776;SDS011;54079;44.540;18.784;2023-04-24T09:24:34;7.70;;;4.20;;
55776;SDS011;54079;44.540;18.784;2023-04-24T09:27:00;4.00;;;2.75;;
55776;SDS011;54079;44.540;18.784;2023-04-24T09:29:27;4.88;;;3.90;;
55776;SDS011;54079;44.540;18.784;2023-04-24T09:31:53;5.25;;;3.33;;
55776;SDS011;54079;44.540;18.784;2023-04-24T09:34:23;3.10;;;2.15;;
55776;SDS011;54079;44.540;18.784;2023-04-24T09:36:50;8.73;;;6.13;;
55776;SDS011;54079;44.540;18.784;2023-04-24T09:39:17;11.45;;;9.80;;
55776;SDS011;54079;44.540;18.784;2023-04-24T09:41:52;12.30;;;10.82;;
55776;SDS011;54079;44.540;18.784;2023-04-24T09:44:20;13.48;;;11.88;;
55776;SDS011;54079;44.540;18.784;2023-04-24T09:46:53;5.47;;;3.20;;
55776;SDS011;54079;44.540;18.784;2023-04-24T09:49:27;5.88;;;4.93;;
55776;SDS011;54079;44.540;18.784;2023-04-24T09:54:36;9.25;;;4.45;;
55776;SDS011;54079;44.540;18.784;2023-04-24T09:57:03;3.58;;;3.17;;
55776;SDS011;54079;44.540;18.784;2023-04-24T09:59:30;3.67;;;2.00;;
55776;SDS011;54079;44.540;18.784;2023-04-24T10:01:56;3.25;;;2.95;;
55776;SDS011;54079;44.540;18.784;2023-04-24T10:04:27;2.80;;;1.95;;
55776;SDS011;54079;44.540;18.784;2023-04-24T10:06:54;4.18;;;2.10;;
55776;SDS011;54079;44.540;18.784;2023-04-24T10:09:23;2.50;;;2.30;;
55776;SDS011;54079;44.540;18.784;2023-04-24T10:11:51;3.95;;;2.88;;
55776;SDS011;54079;44.540;18.784;2023-04-24T10:14:23;4.00;;;2.08;;
55776;SDS011;54079;44.540;18.784;2023-04-24T10:16:50;4.32;;;2.75;;
55776;SDS011;54079;44.540;18.784;2023-04-24T10:19:19;3.70;;;3.33;;
55776;SDS011;54079;44.540;18.784;2023-04-24T10:21:45;2.30;;;2.10;;
55776;SDS011;54079;44.540;18.784;2023-04-24T10:24:15;3.30;;;3.00;;
55776;SDS011;54079;44.540;18.784;2023-04-24T10:26:43;7.13;;;3.03;;
55776;SDS011;54079;44.540;18.784;2023-04-24T10:29:11;2.85;;;2.55;;
55776;SDS011;54079;44.540;18.784;2023-04-24T10:31:38;2.85;;;2.60;;
55776;SDS011;54079;44.540;18.784;2023-04-24T10:34:08;5.93;;;5.05;;
55776;SDS011;54079;44.540;18.784;2023-04-24T10:36:36;2.67;;;2.45;;
55776;SDS011;54079;44.540;18.784;2023-04-24T10:39:08;2.53;;;2.28;;
55776;SDS011;54079;44.540;18.784;2023-04-24T10:41:38;4.50;;;3.53;;
55776;SDS011;54079;44.540;18.784;2023-04-24T10:44:07;4.35;;;3.38;;
55776;SDS011;54079;44.540;18.784;2023-04-24T10:46:38;6.07;;;4.55;;
55776;SDS011;54079;44.540;18.784;2023-04-24T10:49:08;4.28;;;3.13;;
55776;SDS011;54079;44.540;18.784;2023-04-24T10:51:50;5.82;;;4.43;;
55776;SDS011;54079;44.540;18.784;2023-04-24T10:54:25;6.53;;;5.90;;
55776;SDS011;54079;44.540;18.784;2023-04-24T10:59:47;6.43;;;4.65;;
55776;SDS011;54079;44.540;18.784;2023-04-24T11:02:14;7.55;;;6.78;;
55776;SDS011;54079;44.540;18.784;2023-04-24T11:04:40;10.10;;;8.27;;
55776;SDS011;54079;44.540;18.784;2023-04-24T11:07:12;6.97;;;5.78;;
55776;SDS011;54079;44.540;18.784;2023-04-24T11:09:38;6.53;;;5.82;;
55776;SDS011;54079;44.540;18.784;2023-04-24T11:12:08;4.75;;;2.85;;
55776;SDS011;54079;44.540;18.784;2023-04-24T11:17:38;8.57;;;7.78;;
55776;SDS011;54079;44.540;18.784;2023-04-24T11:20:11;4.93;;;4.43;;
55776;SDS011;54079;44.540;18.784;2023-04-24T11:22:42;11.65;;;9.90;;
55776;SDS011;54079;44.540;18.784;2023-04-24T11:25:09;8.18;;;7.22;;
55776;SDS011;54079;44.540;18.784;2023-04-24T11:27:43;6.68;;;6.10;;
55776;SDS011;54079;44.540;18.784;2023-04-24T11:30:11;4.97;;;3.83;;
55776;SDS011;54079;44.540;18.784;2023-04-24T11:35:08;10.80;;;9.43;;
55776;SDS011;54079;44.540;18.784;2023-04-24T11:37:44;11.93;;;10.73;;
55776;SDS011;54079;44.540;18.784;2023-04-24T11:40:14;5.50;;;4.35;;
55776;SDS011;54079;44.540;18.784;2023-04-24T11:42:44;6.45;;;5.85;;
55776;SDS011;54079;44.540;18.784;2023-04-24T11:45:13;7.68;;;6.90;;
55776;SDS011;54079;44.540;18.784;2023-04-24T11:47:40;3.67;;;2.80;;
55776;SDS011;54079;44.540;18.784;2023-04-24T11:50:07;6.95;;;5.90;;
55776;SDS011;54079;44.540;18.784;2023-04-24T11:52:39;12.30;;;11.07;;
55776;SDS011;54079;44.540;18.784;2023-04-24T11:57:48;10.25;;;9.07;;
55776;SDS011;54079;44.540;18.784;2023-04-24T12:00:34;5.43;;;3.80;;
55776;SDS011;54079;44.540;18.784;2023-04-24T12:03:05;5.40;;;4.90;;
55776;SDS011;54079;44.540;18.784;2023-04-24T12:05:35;10.30;;;8.80;;
55776;SDS011;54079;44.540;18.784;2023-04-24T12:08:01;8.73;;;7.82;;
55776;SDS011;54079;44.540;18.784;2023-04-24T12:10:28;7.53;;;6.70;;
55776;SDS011;54079;44.540;18.784;2023-04-24T12:12:56;10.07;;;8.40;;
55776;SDS011;54079;44.540;18.784;2023-04-24T12:15:23;5.88;;;4.93;;
55776;SDS011;54079;44.540;18.784;2023-04-24T12:17:53;7.68;;;5.60;;
55776;SDS011;54079;44.540;18.784;2023-04-24T12:20:32;4.07;;;3.42;;
55776;SDS011;54079;44.540;18.784;2023-04-24T12:22:59;13.07;;;9.60;;
55776;SDS011;54079;44.540;18.784;2023-04-24T12:25:26;8.07;;;6.43;;
55776;SDS011;54079;44.540;18.784;2023-04-24T12:30:29;7.22;;;6.53;;
55776;SDS011;54079;44.540;18.784;2023-04-24T12:32:59;7.65;;;6.82;;
55776;SDS011;54079;44.540;18.784;2023-04-24T12:35:27;9.73;;;7.28;;
55776;SDS011;54079;44.540;18.784;2023-04-24T12:37:54;6.63;;;5.88;;
55776;SDS011;54079;44.540;18.784;2023-04-24T12:40:21;3.45;;;3.03;;
55776;SDS011;54079;44.540;18.784;2023-04-24T12:42:48;4.30;;;3.85;;
55776;SDS011;54079;44.540;18.784;2023-04-24T12:45:16;5.65;;;4.70;;
55776;SDS011;54079;44.540;18.784;2023-04-24T12:47:43;4.97;;;4.03;;
55776;SDS011;54079;44.540;18.784;2023-04-24T12:50:11;4.60;;;4.13;;
55776;SDS011;54079;44.540;18.784;2023-04-24T12:52:38;6.15;;;4.32;;
55776;SDS011;54079;44.540;18.784;2023-04-24T12:55:06;9.70;;;8.77;;
55776;SDS011;54079;44.540;18.784;2023-04-24T12:57:35;7.88;;;7.07;;
55776;SDS011;54079;44.540;18.784;2023-04-24T13:00:02;10.82;;;8.80;;
55776;SDS011;54079;44.540;18.784;2023-04-24T13:02:30;5.63;;;5.07;;
55776;SDS011;54079;44.540;18.784;2023-04-24T13:04:57;4.15;;;3.75;;
55776;SDS011;54079;44.540;18.784;2023-04-24T13:07:24;3.15;;;2.50;;
55776;SDS011;54079;44.540;18.784;2023-04-24T13:09:50;4.75;;;2.65;;
55776;SDS011;54079;44.540;18.784;2023-04-24T13:12:17;2.72;;;2.53;;
55776;SDS011;54079;44.540;18.784;2023-04-24T13:14:43;3.70;;;3.25;;
55776;SDS011;54079;44.540;18.784;2023-04-24T13:17:10;3.88;;;3.58;;
55776;SDS011;54079;44.540;18.784;2023-04-24T13:19:42;2.33;;;2.13;;
55776;SDS011;54079;44.540;18.784;2023-04-24T13:22:10;5.82;;;5.32;;
55776;SDS011;54079;44.540;18.784;2023-04-24T13:24:37;4.93;;;3.42;;
55776;SDS011;54079;44.540;18.784;2023-04-24T13:27:05;5.30;;;3.85;;
55776;SDS011;54079;44.540;18.784;2023-04-24T13:29:30;2.85;;;2.38;;
55776;SDS011;54079;44.540;18.784;2023-04-24T13:31:56;2.25;;;1.90;;
55776;SDS011;54079;44.540;18.784;2023-04-24T13:34:23;3.15;;;2.95;;
55776;SDS011;54079;44.540;18.784;2023-04-24T13:36:50;4.32;;;3.80;;
55776;SDS011;54079;44.540;18.784;2023-04-24T13:39:20;9.45;;;7.13;;
55776;SDS011;54079;44.540;18.784;2023-04-24T13:41:47;3.38;;;2.58;;
55776;SDS011;54079;44.540;18.784;2023-04-24T13:44:14;2.55;;;2.35;;
55776;SDS011;54079;44.540;18.784;2023-04-24T13:46:41;2.53;;;2.33;;
55776;SDS011;54079;44.540;18.784;2023-04-24T13:49:09;2.42;;;2.20;;
55776;SDS011;54079;44.540;18.784;2023-04-24T13:51:36;5.40;;;4.13;;
55776;SDS011;54079;44.540;18.784;2023-04-24T13:54:02;3.10;;;2.80;;
55776;SDS011;54079;44.540;18.784;2023-04-24T13:56:28;3.22;;;2.92;;
55776;SDS011;54079;44.540;18.784;2023-04-24T13:58:54;2.78;;;2.45;;
55776;SDS011;54079;44.540;18.784;2023-04-24T14:01:20;3.83;;;3.53;;
55776;SDS011;54079;44.540;18.784;2023-04-24T14:03:50;3.42;;;2.80;;
55776;SDS011;54079;44.540;18.784;2023-04-24T14:06:16;2.72;;;2.17;;
55776;SDS011;54079;44.540;18.784;2023-04-24T14:08:43;2.28;;;2.08;;
55776;SDS011;54079;44.540;18.784;2023-04-24T14:11:09;3.13;;;2.83;;
55776;SDS011;54079;44.540;18.784;2023-04-24T14:13:35;3.35;;;3.03;;
55776;SDS011;54079;44.540;18.784;2023-04-24T14:16:02;3.00;;;2.72;;
55776;SDS011;54079;44.540;18.784;2023-04-24T14:18:29;6.22;;;3.75;;
55776;SDS011;54079;44.540;18.784;2023-04-24T14:20:55;2.70;;;2.50;;
55776;SDS011;54079;44.540;18.784;2023-04-24T14:23:21;3.67;;;3.22;;
55776;SDS011;54079;44.540;18.784;2023-04-24T14:25:47;5.13;;;3.45;;
55776;SDS011;54079;44.540;18.784;2023-04-24T14:28:16;3.13;;;2.83;;
55776;SDS011;54079;44.540;18.784;2023-04-24T14:30:43;3.75;;;3.45;;
55776;SDS011;54079;44.540;18.784;2023-04-24T14:33:09;3.92;;;3.42;;
55776;SDS011;54079;44.540;18.784;2023-04-24T14:35:35;3.50;;;3.20;;
55776;SDS011;54079;44.540;18.784;2023-04-24T14:38:01;3.30;;;3.10;;
55776;SDS011;54079;44.540;18.784;2023-04-24T14:40:27;4.15;;;3.75;;
55776;SDS011;54079;44.540;18.784;2023-04-24T14:42:53;3.90;;;2.42;;
55776;SDS011;54079;44.540;18.784;2023-04-24T14:45:19;3.90;;;2.65;;
55776;SDS011;54079;44.540;18.784;2023-04-24T14:47:45;2.28;;;2.08;;